createdAt,value
2022-12-07T00:01:07.111Z,10.83
2022-12-07T00:03:34.940Z,10.77
2022-12-07T00:06:03.592Z,10.50
2022-12-07T00:08:32.518Z,11.37
2022-12-07T00:11:03.658Z,11.10
2022-12-07T00:13:31.671Z,10.30
2022-12-07T00:16:03.917Z,8.73
2022-12-07T00:18:31.557Z,9.40
2022-12-07T00:21:02.206Z,9.20
2022-12-07T00:23:30.089Z,10.00
2022-12-07T00:25:57.648Z,9.17
2022-12-07T00:28:25.187Z,9.43
2022-12-07T00:30:52.694Z,9.60
2022-12-07T00:33:21.549Z,9.70
2022-12-07T00:35:49.110Z,9.67
2022-12-07T00:38:16.615Z,9.83
2022-12-07T00:40:44.180Z,9.83
2022-12-07T00:43:11.695Z,9.53
2022-12-07T00:45:39.258Z,8.80
2022-12-07T00:48:06.834Z,8.93
2022-12-07T00:50:35.711Z,9.00
2022-12-07T00:53:03.240Z,9.17
2022-12-07T00:55:34.771Z,9.17
2022-12-07T00:58:02.285Z,9.90
2022-12-07T01:00:29.855Z,10.17
2022-12-07T01:02:57.437Z,10.73
2022-12-07T01:05:25.018Z,11.23
2022-12-07T01:07:53.981Z,10.10
2022-12-07T01:10:21.549Z,11.57
2022-12-07T01:12:49.119Z,11.43
2022-12-07T01:15:16.825Z,10.77
2022-12-07T01:17:44.330Z,10.50
2022-12-07T01:20:13.164Z,10.27
2022-12-07T01:22:41.569Z,10.17
2022-12-07T01:25:12.219Z,11.30
2022-12-07T01:27:40.073Z,10.07
2022-12-07T01:30:09.117Z,9.73
2022-12-07T01:32:36.650Z,10.97
2022-12-07T01:35:04.383Z,9.40
2022-12-07T01:37:36.485Z,11.27
2022-12-07T01:40:04.637Z,9.57
2022-12-07T01:42:33.585Z,9.77
2022-12-07T01:45:46.976Z,10.00
2022-12-07T01:48:18.427Z,9.13
2022-12-07T01:50:50.427Z,10.47
2022-12-07T01:53:19.844Z,11.03
2022-12-07T01:55:52.035Z,9.27
2022-12-07T01:58:21.834Z,10.57
2022-12-07T02:00:49.337Z,10.30
2022-12-07T02:03:21.623Z,9.37
2022-12-07T02:05:51.024Z,10.53
2022-12-07T02:08:19.082Z,10.23
2022-12-07T02:10:46.642Z,11.30
2022-12-07T02:13:17.539Z,10.53
2022-12-07T02:15:59.924Z,9.70
2022-12-07T02:18:40.151Z,10.27
2022-12-07T02:21:13.356Z,9.90
2022-12-07T02:23:54.142Z,11.23
2022-12-07T02:26:45.261Z,10.73
2022-12-07T02:29:20.201Z,12.33
2022-12-07T02:31:57.048Z,11.43
2022-12-07T02:34:36.745Z,11.83
2022-12-07T02:37:12.239Z,12.13
2022-12-07T02:39:46.071Z,11.70
2022-12-07T02:42:18.127Z,10.97
2022-12-07T02:44:48.338Z,11.03
2022-12-07T02:47:20.526Z,11.37
2022-12-07T02:49:48.279Z,11.63
2022-12-07T02:52:15.785Z,12.00
2022-12-07T02:54:43.292Z,11.43
2022-12-07T02:57:25.884Z,11.87
2022-12-07T03:00:04.855Z,12.23
2022-12-07T03:02:42.668Z,12.73
2022-12-07T03:05:34.727Z,11.90
2022-12-07T03:08:08.532Z,10.77
2022-12-07T03:10:49.825Z,10.60
2022-12-07T03:13:25.482Z,10.70
2022-12-07T03:16:00.510Z,10.77
2022-12-07T03:18:32.530Z,10.43
2022-12-07T03:21:06.907Z,11.70
2022-12-07T03:23:37.580Z,10.83
2022-12-07T03:26:08.477Z,10.47
2022-12-07T03:28:41.931Z,11.90
2022-12-07T03:31:16.783Z,11.50
2022-12-07T03:33:50.550Z,12.03
2022-12-07T03:36:24.040Z,11.33
2022-12-07T03:38:57.969Z,12.17
2022-12-07T03:41:28.900Z,12.80
2022-12-07T03:43:57.598Z,11.40
2022-12-07T03:46:37.581Z,12.37
2022-12-07T03:49:11.969Z,13.33
2022-12-07T03:51:46.016Z,12.47
2022-12-07T03:54:18.350Z,12.93
2022-12-07T03:56:47.834Z,14.47
2022-12-07T03:59:16.609Z,14.17
2022-12-07T04:01:46.276Z,14.37
2022-12-07T04:04:13.856Z,13.90
2022-12-07T04:06:41.380Z,13.17
2022-12-07T04:09:08.885Z,14.10
2022-12-07T04:11:36.408Z,14.40
2022-12-07T04:14:22.314Z,14.20
2022-12-07T04:16:53.001Z,15.20
2022-12-07T04:19:23.283Z,14.33
2022-12-07T04:21:50.836Z,13.77
2022-12-07T04:24:18.890Z,13.23
2022-12-07T04:26:47.378Z,14.83
2022-12-07T04:29:16.456Z,13.90
2022-12-07T04:31:44.607Z,13.83
2022-12-07T04:34:14.090Z,14.73
2022-12-07T04:36:42.533Z,16.20
2022-12-07T04:39:15.780Z,15.50
2022-12-07T04:41:43.323Z,15.77
2022-12-07T04:44:10.928Z,15.87
2022-12-07T04:46:38.451Z,17.13
2022-12-07T04:49:06.006Z,16.90
2022-12-07T04:51:34.876Z,16.70
2022-12-07T04:54:02.392Z,17.30
2022-12-07T04:56:29.939Z,16.53
2022-12-07T04:58:57.588Z,17.17
2022-12-07T05:01:25.878Z,17.00
2022-12-07T05:03:53.560Z,16.53
2022-12-07T05:06:21.658Z,17.67
2022-12-07T05:08:50.647Z,16.47
2022-12-07T05:11:32.475Z,15.93
2022-12-07T05:14:00.010Z,18.13
2022-12-07T05:16:28.084Z,17.23
2022-12-07T05:18:55.637Z,16.90
2022-12-07T05:21:23.330Z,16.77
2022-12-07T05:23:52.253Z,15.90
2022-12-07T05:26:19.834Z,16.77
2022-12-07T05:28:47.352Z,16.10
2022-12-07T05:31:14.920Z,16.37
2022-12-07T05:33:42.440Z,15.63
2022-12-07T05:36:10.151Z,15.13
2022-12-07T05:38:37.702Z,16.13
2022-12-07T05:41:08.504Z,17.83
2022-12-07T05:43:35.059Z,17.40
2022-12-07T05:46:02.635Z,16.27
2022-12-07T05:48:30.221Z,18.80
2022-12-07T05:50:57.728Z,17.50
2022-12-07T05:53:25.269Z,20.13
2022-12-07T05:55:54.038Z,19.63
2022-12-07T05:58:40.381Z,20.87
2022-12-07T06:01:07.883Z,21.13
2022-12-07T06:03:35.493Z,21.30
2022-12-07T06:06:03.088Z,25.07
2022-12-07T06:08:30.714Z,24.77
2022-12-07T06:11:12.193Z,26.13
2022-12-07T06:13:46.822Z,27.00
2022-12-07T06:16:14.824Z,28.27
2022-12-07T06:18:42.397Z,27.50
2022-12-07T06:21:09.950Z,28.97
2022-12-07T06:23:37.456Z,27.63
2022-12-07T06:26:05.103Z,29.57
2022-12-07T06:28:32.599Z,30.53
2022-12-07T06:31:02.223Z,29.03
2022-12-07T06:33:30.710Z,30.60
2022-12-07T06:35:58.261Z,32.90
2022-12-07T06:38:25.815Z,30.20
2022-12-07T06:40:53.335Z,31.17
2022-12-07T06:43:20.845Z,31.20
2022-12-07T06:45:48.384Z,32.67
2022-12-07T06:48:17.274Z,32.60
2022-12-07T06:50:51.179Z,32.10
2022-12-07T06:53:21.825Z,31.43
2022-12-07T06:55:49.390Z,34.83
2022-12-07T06:58:17.146Z,30.57
2022-12-07T07:00:44.823Z,28.63
2022-12-07T07:03:12.762Z,30.33
2022-12-07T07:05:41.610Z,30.13
2022-12-07T07:08:25.065Z,29.77
2022-12-07T07:10:52.674Z,34.63
2022-12-07T07:13:20.202Z,33.43
2022-12-07T07:15:47.783Z,39.33
2022-12-07T07:18:15.315Z,26.47
2022-12-07T07:20:44.149Z,29.07
2022-12-07T07:23:11.693Z,30.13
2022-12-07T07:25:39.531Z,20.00
2022-12-07T07:28:07.439Z,18.40
2022-12-07T07:30:35.051Z,19.73
2022-12-07T07:33:04.079Z,19.97
2022-12-07T07:35:33.158Z,19.20
2022-12-07T07:38:02.347Z,15.47
2022-12-07T07:40:30.646Z,17.83
2022-12-07T07:42:58.928Z,15.53
2022-12-07T07:45:28.267Z,14.30
2022-12-07T07:47:56.063Z,14.87
2022-12-07T07:50:24.140Z,14.37
2022-12-07T07:52:52.109Z,12.93
2022-12-07T07:55:21.074Z,14.33
2022-12-07T07:57:54.553Z,13.20
2022-12-07T08:00:23.787Z,12.17
2022-12-07T08:02:51.358Z,12.23
2022-12-07T08:05:19.188Z,14.40
2022-12-07T08:07:46.773Z,13.50
2022-12-07T08:10:15.729Z,12.50
2022-12-07T08:13:02.991Z,13.87
2022-12-07T08:15:32.412Z,12.73
2022-12-07T08:18:00.668Z,12.77
2022-12-07T08:20:28.356Z,11.67
2022-12-07T08:22:55.910Z,10.60
2022-12-07T08:25:24.028Z,12.23
2022-12-07T08:27:53.548Z,11.80
2022-12-07T08:30:21.768Z,11.07
2022-12-07T08:32:50.248Z,10.70
2022-12-07T08:35:18.574Z,10.87
2022-12-07T08:37:46.091Z,10.80
2022-12-07T08:40:16.070Z,10.47
2022-12-07T08:42:45.457Z,10.13
2022-12-07T08:45:16.330Z,9.17
2022-12-07T08:47:47.447Z,10.03
2022-12-07T08:50:15.976Z,10.07
2022-12-07T08:52:43.729Z,9.73
2022-12-07T08:55:13.057Z,9.77
2022-12-07T08:57:41.447Z,10.80
2022-12-07T09:00:10.100Z,9.23
2022-12-07T09:02:39.280Z,10.07
2022-12-07T09:05:11.815Z,9.07
2022-12-07T09:07:44.259Z,10.17
2022-12-07T09:10:12.556Z,10.07
2022-12-07T09:12:40.103Z,10.83
2022-12-07T09:15:09.364Z,10.67
2022-12-07T09:17:38.184Z,9.63
2022-12-07T09:20:08.972Z,11.37
2022-12-07T09:22:36.513Z,9.33
2022-12-07T09:25:04.926Z,10.70
2022-12-07T09:27:32.860Z,10.40
2022-12-07T09:30:00.716Z,10.13
2022-12-07T09:32:28.693Z,11.53
2022-12-07T09:34:56.356Z,10.93
2022-12-07T09:37:25.267Z,10.40
2022-12-07T09:39:53.107Z,10.57
2022-12-07T09:42:30.685Z,9.07
2022-12-07T09:44:59.470Z,9.93
2022-12-07T09:47:28.012Z,10.20
2022-12-07T09:50:02.360Z,10.33
2022-12-07T09:52:38.522Z,8.00
2022-12-07T09:55:13.604Z,10.23
2022-12-07T09:57:41.702Z,8.60
2022-12-07T10:00:16.794Z,7.93
2022-12-07T10:02:46.801Z,10.53
2022-12-07T10:05:23.585Z,9.77
2022-12-07T10:07:53.376Z,10.77
2022-12-07T10:10:26.707Z,10.00
2022-12-07T10:12:59.637Z,10.37
2022-12-07T10:15:43.943Z,9.20
2022-12-07T10:18:21.706Z,9.87
2022-12-07T10:20:50.026Z,7.23
2022-12-07T10:23:20.148Z,8.20
2022-12-07T10:25:49.132Z,8.53
2022-12-07T10:28:18.895Z,9.33
2022-12-07T10:30:57.658Z,9.40
2022-12-07T10:33:39.864Z,9.20
2022-12-07T10:36:20.419Z,9.70
2022-12-07T10:38:52.182Z,8.70
2022-12-07T10:41:19.969Z,6.27
2022-12-07T10:43:55.475Z,9.07
2022-12-07T10:46:52.933Z,8.43
2022-12-07T10:49:59.107Z,8.10
2022-12-07T10:52:42.971Z,9.47
2022-12-07T10:55:22.065Z,9.60
2022-12-07T10:58:11.524Z,9.67
2022-12-07T11:00:45.521Z,6.97
2022-12-07T11:03:33.185Z,8.10
2022-12-07T11:06:12.416Z,6.93
2022-12-07T11:08:51.319Z,8.77
2022-12-07T11:11:28.916Z,8.80
2022-12-07T11:14:04.207Z,8.33
2022-12-07T11:16:46.414Z,7.70
2022-12-07T11:19:31.052Z,7.20
2022-12-07T11:22:00.438Z,6.53
2022-12-07T11:24:34.744Z,7.83
2022-12-07T11:27:12.579Z,9.00
2022-12-07T11:29:51.572Z,7.43
2022-12-07T11:32:24.512Z,7.30
2022-12-07T11:35:05.208Z,5.97
2022-12-07T11:37:38.192Z,7.13
2022-12-07T11:40:19.329Z,6.53
2022-12-07T11:42:53.476Z,5.70
2022-12-07T11:45:28.067Z,5.77
2022-12-07T11:48:00.437Z,6.60
2022-12-07T11:50:34.866Z,5.43
2022-12-07T11:53:07.385Z,7.37
2022-12-07T11:55:44.854Z,6.20
2022-12-07T11:58:25.051Z,5.03
2022-12-07T12:00:57.045Z,7.03
2022-12-07T12:03:31.282Z,7.10
2022-12-07T12:05:58.990Z,6.67
2022-12-07T12:11:40.535Z,7.13
2022-12-07T12:17:18.978Z,7.27
2022-12-07T12:20:02.012Z,7.73
2022-12-07T12:22:39.032Z,8.17
2022-12-07T12:25:09.253Z,8.50
2022-12-07T12:27:39.814Z,7.00
2022-12-07T12:30:27.666Z,8.10
2022-12-07T12:33:05.290Z,7.17
2022-12-07T12:35:35.042Z,6.87
2022-12-07T12:38:28.866Z,7.50
2022-12-07T12:40:57.182Z,6.67
2022-12-07T12:43:53.160Z,7.23
2022-12-07T12:46:50.158Z,6.90
2022-12-07T12:49:35.828Z,6.83
2022-12-07T12:52:51.312Z,8.00
2022-12-07T12:55:24.471Z,8.87
2022-12-07T12:58:29.383Z,8.03
2022-12-07T13:01:30.231Z,8.83
2022-12-07T13:03:59.724Z,8.33
2022-12-07T13:06:38.983Z,8.93
2022-12-07T13:09:19.923Z,7.80
2022-12-07T13:11:48.325Z,7.87
2022-12-07T13:14:45.235Z,8.20
2022-12-07T13:17:13.827Z,8.00
2022-12-07T13:20:03.792Z,7.93
2022-12-07T13:22:44.342Z,7.70
2022-12-07T13:25:21.297Z,8.20
2022-12-07T13:27:56.042Z,7.47
2022-12-07T13:30:24.181Z,8.43
2022-12-07T13:32:56.116Z,9.07
2022-12-07T13:35:33.023Z,8.20
2022-12-07T13:38:01.495Z,8.90
2022-12-07T13:40:29.066Z,8.83
2022-12-07T13:43:01.074Z,9.33
2022-12-07T13:45:49.019Z,9.33
2022-12-07T13:48:24.181Z,9.47
2022-12-07T13:50:57.586Z,8.63
2022-12-07T13:53:25.743Z,9.87
2022-12-07T13:55:54.880Z,9.43
2022-12-07T13:58:23.634Z,9.83
2022-12-07T14:00:51.881Z,9.90
2022-12-07T14:03:33.135Z,8.47
2022-12-07T14:06:26.148Z,8.20
2022-12-07T14:09:18.546Z,9.60
2022-12-07T14:11:46.720Z,9.40
2022-12-07T14:14:18.799Z,9.10
2022-12-07T14:17:00.813Z,8.70
2022-12-07T14:19:48.614Z,8.77
2022-12-07T14:22:25.229Z,9.30
2022-12-07T14:25:00.253Z,8.80
2022-12-07T14:27:34.901Z,9.03
2022-12-07T14:30:02.880Z,9.40
2022-12-07T14:32:31.866Z,9.03
2022-12-07T14:35:02.388Z,8.67
2022-12-07T14:37:32.290Z,9.03
2022-12-07T14:39:59.827Z,8.30
2022-12-07T14:42:32.488Z,8.20
2022-12-07T14:45:00.969Z,7.90
2022-12-07T14:50:19.769Z,7.40
2022-12-07T14:55:40.611Z,6.83
2022-12-07T14:58:08.160Z,7.30
2022-12-07T15:00:35.992Z,6.80
2022-12-07T15:03:03.525Z,6.47
2022-12-07T15:05:31.158Z,6.87
2022-12-07T15:08:00.183Z,7.00
2022-12-07T15:10:33.748Z,7.07
2022-12-07T15:13:17.638Z,6.63
2022-12-07T15:15:45.293Z,6.47
2022-12-07T15:18:12.900Z,7.30
2022-12-07T15:20:40.456Z,6.97
2022-12-07T15:23:09.915Z,6.40
2022-12-07T15:25:37.610Z,7.17
2022-12-07T15:28:05.309Z,6.70
2022-12-07T15:30:32.827Z,6.30
2022-12-07T15:33:00.372Z,6.60
2022-12-07T15:35:27.903Z,6.57
2022-12-07T15:37:55.428Z,6.37
2022-12-07T15:40:24.330Z,6.80
2022-12-07T15:42:51.856Z,6.67
2022-12-07T15:45:18.560Z,6.47
2022-12-07T15:50:33.956Z,6.57
2022-12-07T15:53:01.459Z,6.97
2022-12-07T15:55:30.327Z,7.23
2022-12-07T15:57:57.844Z,7.23
2022-12-07T16:00:25.700Z,7.87
2022-12-07T16:02:53.274Z,7.20
2022-12-07T16:05:20.876Z,6.77
2022-12-07T16:07:48.782Z,7.40
2022-12-07T16:10:16.558Z,6.93
2022-12-07T16:12:45.437Z,7.03
2022-12-07T16:15:12.987Z,7.77
2022-12-07T16:17:40.503Z,7.43
2022-12-07T16:20:09.161Z,7.33
2022-12-07T16:22:36.687Z,7.70
2022-12-07T16:25:04.811Z,8.00
2022-12-07T16:27:32.428Z,8.17
2022-12-07T16:30:01.277Z,7.87
2022-12-07T16:32:28.787Z,8.70
2022-12-07T16:34:56.311Z,8.40
2022-12-07T16:37:23.824Z,8.40
2022-12-07T16:39:51.360Z,8.70
2022-12-07T16:42:18.960Z,9.47
2022-12-07T16:44:46.462Z,9.40
2022-12-07T16:47:16.022Z,9.00
2022-12-07T16:49:44.539Z,9.00
2022-12-07T16:52:20.674Z,9.43
2022-12-07T16:54:49.211Z,9.73
2022-12-07T16:57:22.329Z,9.30
2022-12-07T16:59:50.411Z,10.30
2022-12-07T17:02:19.299Z,9.80
2022-12-07T17:04:46.827Z,10.10
2022-12-07T17:07:14.447Z,9.90
2022-12-07T17:09:42.017Z,11.20
2022-12-07T17:12:09.559Z,10.17
2022-12-07T17:14:54.881Z,10.57
2022-12-07T17:17:23.740Z,10.57
2022-12-07T17:19:51.252Z,10.30
2022-12-07T17:22:18.815Z,9.93
2022-12-07T17:24:46.330Z,10.40
2022-12-07T17:27:13.888Z,9.67
2022-12-07T17:29:41.407Z,11.57
2022-12-07T17:32:09.018Z,10.53
2022-12-07T17:34:38.731Z,10.43
2022-12-07T17:37:06.237Z,11.30
2022-12-07T17:39:33.754Z,10.63
2022-12-07T17:42:18.747Z,9.30
2022-12-07T17:44:46.258Z,10.17
2022-12-07T17:47:15.599Z,11.13
2022-12-07T17:49:46.550Z,9.73
2022-12-07T17:52:31.847Z,9.93
2022-12-07T17:54:59.378Z,10.00
2022-12-07T17:57:27.005Z,10.93
2022-12-07T17:59:55.404Z,10.57
2022-12-07T18:02:22.951Z,9.33
2022-12-07T18:04:53.002Z,10.87
2022-12-07T18:07:20.570Z,10.60
2022-12-07T18:09:48.072Z,10.30
2022-12-07T18:12:15.671Z,9.80
2022-12-07T18:14:43.179Z,10.97
2022-12-07T18:17:10.792Z,10.23
2022-12-07T18:19:38.424Z,10.60
2022-12-07T18:22:07.308Z,13.27
2022-12-07T18:24:37.103Z,11.07
2022-12-07T18:27:05.258Z,10.63
2022-12-07T18:29:32.793Z,10.87
2022-12-07T18:32:00.350Z,10.17
2022-12-07T18:34:30.278Z,10.43
2022-12-07T18:36:57.863Z,11.30
2022-12-07T18:39:33.038Z,10.50
2022-12-07T18:42:01.431Z,10.60
2022-12-07T18:44:28.940Z,10.90
2022-12-07T18:46:56.435Z,12.23
2022-12-07T18:49:24.011Z,10.97
2022-12-07T18:51:51.551Z,11.53
2022-12-07T18:54:19.050Z,11.27
2022-12-07T18:56:47.906Z,10.77
2022-12-07T18:59:33.062Z,11.77
2022-12-07T19:02:00.719Z,12.93
2022-12-07T19:04:28.454Z,12.57
2022-12-07T19:06:55.974Z,13.07
2022-12-07T19:09:23.511Z,12.73
2022-12-07T19:11:52.825Z,13.40
2022-12-07T19:14:24.546Z,12.30
2022-12-07T19:16:53.391Z,11.13
2022-12-07T19:19:23.021Z,13.23
2022-12-07T19:21:51.223Z,13.60
2022-12-07T19:24:23.094Z,13.23
2022-12-07T19:26:52.642Z,15.77
2022-12-07T19:29:20.346Z,13.70
2022-12-07T19:31:48.003Z,13.07
2022-12-07T19:34:17.531Z,13.93
2022-12-07T19:36:45.832Z,12.90
2022-12-07T19:39:15.351Z,12.87
2022-12-07T19:41:44.066Z,13.40
2022-12-07T19:44:14.977Z,14.50
2022-12-07T19:46:43.636Z,13.70
2022-12-07T19:49:11.229Z,12.83
2022-12-07T19:51:38.765Z,13.33
2022-12-07T19:54:06.440Z,15.23
2022-12-07T19:56:33.969Z,14.17
2022-12-07T19:59:02.926Z,15.03
2022-12-07T20:01:32.003Z,13.37
2022-12-07T20:03:59.632Z,13.23
2022-12-07T20:06:27.947Z,13.87
2022-12-07T20:08:55.469Z,15.47
2022-12-07T20:11:40.722Z,14.33
2022-12-07T20:14:09.244Z,14.50
2022-12-07T20:16:40.123Z,16.40
2022-12-07T20:19:08.684Z,13.50
2022-12-07T20:21:36.304Z,13.80
2022-12-07T20:24:05.173Z,12.67
2022-12-07T20:26:34.592Z,13.47
2022-12-07T20:29:07.871Z,13.77
2022-12-07T20:31:39.128Z,14.43
2022-12-07T20:34:06.699Z,14.73
2022-12-07T20:36:34.259Z,15.13
2022-12-07T20:39:02.841Z,16.73
2022-12-07T20:41:47.888Z,14.13
2022-12-07T20:44:16.026Z,15.90
2022-12-07T20:46:45.336Z,15.23
2022-12-07T20:49:15.202Z,14.23
2022-12-07T20:51:42.742Z,14.97
2022-12-07T20:54:10.558Z,14.67
2022-12-07T20:56:38.148Z,15.20
2022-12-07T20:59:09.634Z,14.37
2022-12-07T21:01:37.962Z,16.27
2022-12-07T21:04:07.178Z,15.90
2022-12-07T21:06:35.139Z,16.20
2022-12-07T21:09:02.720Z,16.10
2022-12-07T21:11:31.716Z,16.63
2022-12-07T21:13:59.843Z,17.23
2022-12-07T21:16:29.654Z,15.23
2022-12-07T21:18:59.964Z,16.60
2022-12-07T21:21:29.747Z,15.73
2022-12-07T21:24:02.087Z,15.17
2022-12-07T21:26:31.028Z,16.00
2022-12-07T21:28:58.575Z,17.07
2022-12-07T21:31:26.734Z,18.40
2022-12-07T21:33:54.468Z,18.43
2022-12-07T21:36:24.199Z,18.83
2022-12-07T21:38:53.461Z,18.50
2022-12-07T21:41:23.631Z,18.70
2022-12-07T21:43:51.958Z,20.57
2022-12-07T21:46:21.038Z,17.47
2022-12-07T21:48:51.826Z,18.20
2022-12-07T21:51:21.000Z,18.80
2022-12-07T21:53:49.845Z,19.60
2022-12-07T21:56:21.236Z,19.40
2022-12-07T21:58:49.852Z,19.27
2022-12-07T22:01:18.994Z,19.97
2022-12-07T22:03:47.259Z,20.03
2022-12-07T22:06:15.538Z,19.30
2022-12-07T22:08:43.165Z,18.43
2022-12-07T22:11:11.268Z,19.83
2022-12-07T22:13:59.065Z,17.80
2022-12-07T22:16:27.481Z,15.40
2022-12-07T22:18:57.399Z,15.67
2022-12-07T22:21:25.567Z,15.80
2022-12-07T22:23:53.559Z,17.53
2022-12-07T22:26:24.416Z,19.40
2022-12-07T22:28:53.697Z,16.27
2022-12-07T22:31:22.238Z,17.27
2022-12-07T22:33:50.254Z,16.97
2022-12-07T22:36:18.452Z,17.57
2022-12-07T22:38:46.821Z,17.00
2022-12-07T22:41:19.424Z,17.57
2022-12-07T22:43:46.995Z,21.70
2022-12-07T22:46:16.227Z,20.53
2022-12-07T22:48:43.813Z,26.73
2022-12-07T22:51:21.696Z,23.63
2022-12-07T22:53:49.291Z,25.13
2022-12-07T22:56:17.223Z,28.23
2022-12-07T22:58:45.213Z,27.50
2022-12-07T23:01:14.197Z,33.90
2022-12-07T23:03:43.651Z,30.13
2022-12-07T23:06:15.038Z,29.60
2022-12-07T23:08:42.603Z,27.77
2022-12-07T23:11:11.000Z,28.53
2022-12-07T23:13:38.085Z,29.00
2022-12-07T23:16:11.644Z,28.20
2022-12-07T23:18:39.908Z,28.80
2022-12-07T23:21:09.812Z,34.50
2022-12-07T23:23:37.361Z,34.33
2022-12-07T23:26:06.384Z,40.13
2022-12-07T23:28:35.217Z,37.67
2022-12-07T23:31:04.020Z,33.93
2022-12-07T23:33:31.630Z,23.43
2022-12-07T23:36:09.966Z,25.17
2022-12-07T23:38:38.448Z,32.73
2022-12-07T23:41:07.962Z,32.63
2022-12-07T23:43:36.783Z,31.47
2022-12-07T23:46:05.087Z,31.60
2022-12-07T23:48:32.623Z,30.37
2022-12-07T23:51:00.263Z,29.70
2022-12-07T23:53:30.297Z,33.10
2022-12-07T23:55:58.101Z,31.10
2022-12-07T23:58:25.621Z,30.93
